Weather Top, Arizona (BMGR) Weather observations

Data are for 10 minute period ending at time listed.
 Day   Time   Solar   Ave.   Ave.  Ave.  Vector  Max.   Total    
  of    of     Rad.   Air    Rel.  Wind   Wind   Wind  Precip.   
Year   Day            Temp.  Hum.  Speed  Dir.   Gust            
2026   (MST)  Kw/m2    F      %     mph   deg.    mph    in.     
-----------------------------------------------------------------
 127    3:35   0.00   66.1    29    1.0     8     2.6    0.00 
 127    3:40   0.00   66.4    30    0.9     4     2.6    0.00 
 127    3:45   0.00   66.4    30    1.5   344     3.8    0.00 
 127    3:50   0.00   66.5    29    1.4   345     3.2    0.00 
 127    3:55   0.00   66.5    29    3.1   339     4.9    0.00 
 127    4:00   0.00   66.5    29    3.6   338     4.9    0.00 
 127    4:05   0.00   66.5    28    4.1   335     5.4    0.00 
 127    4:10   0.00   66.3    27    4.1   338     4.9    0.00 
 127    4:15   0.00   66.2    27    3.0   346     4.9    0.00 
 127    4:20   0.00   65.9    28    2.8   345     5.4    0.00 
 127    4:25   0.00   65.9    28    2.1   353     4.3    0.00 
 127    4:30   0.00   65.5    28    2.4     3     3.8    0.00 
 127    4:35   0.00   65.4    28    3.0     3     4.3    0.00 
 127    4:40   0.00   65.4    26    3.1     3     4.9    0.00 
 127    4:45   0.00   65.2    27    3.8    10     5.4    0.00 
 127    4:50   0.00   65.3    27    3.5   360     5.4    0.00 
 127    4:55   0.00   65.2    28    3.6     8     4.9    0.00 
 127    5:00   0.00   65.2    29    3.6    14     5.4    0.00 
 127    5:05   0.00   65.0    30    3.6    11     5.4    0.00 
 127    5:10   0.00   65.0    30    4.5    23     6.5    0.00 
 127    5:15   0.00   65.5    30    5.6    26     7.7    0.00 
 127    5:20   0.00   65.7    30    5.2    23     8.2    0.00 
 127    5:25   0.00   65.6    30    6.0    30     8.2    0.00 
 127    5:30   0.00   65.8    30    6.3    27     8.2    0.00 
 127    5:35   0.00   65.9    29    5.7    28     7.7    0.00 
 127    5:40   0.01   66.0    29    5.0    25     8.2    0.00 
 127    5:45   0.01   65.9    29    4.5    28     6.0    0.00 
 127    5:50   0.02   65.9    29    4.0    32     6.0    0.00 
 127    5:55   0.03   65.8    29    4.1    44     4.9    0.00 
 127    6:00   0.04   65.9    29    4.4    57     4.9    0.00 
 127    6:05   0.06   66.3    29    4.1    58     4.9    0.00 
 127    6:10   0.07   66.6    28    3.8    64     4.3    0.00 
 127    6:15   0.08   66.9    28    3.1    61     4.3    0.00 
 127    6:20   0.10   67.3    28    1.3    48     3.2    0.00 
 127    6:25   0.11   68.0    28    1.7    32     2.6    0.00 
 127    6:30   0.13   68.6    27    2.1    44     3.2    0.00 
 127    6:35   0.14   68.9    27    2.7    45     4.9    0.00 
 127    6:40   0.16   69.2    26    3.2    42     4.3    0.00 
 127    6:45   0.17   69.6    26    3.4    36     4.9    0.00 
 127    6:50   0.19   70.1    25    3.8    40     4.9    0.00 
 127    6:55   0.21   70.3    24    4.0    37     5.4    0.00 
 127    7:00   0.22   70.5    24    3.9    37     6.0    0.00 
 127    7:05   0.24   70.8    24    2.9    55     6.0    0.00 
 127    7:10   0.26   70.9    24    4.3    25     6.5    0.00 
 127    7:15   0.28   71.2    24    4.3    27     6.0    0.00 
 127    7:20   0.29   71.4    23    4.4    27     6.5    0.00 
 127    7:25   0.31   71.7    23    4.7    24     7.1    0.00 
 127    7:30   0.33   71.8    23    5.3    34     8.2    0.00 
 127    7:35   0.35   72.2    22    5.0    27     7.1    0.00 
 127    7:40   0.36   72.1    22    6.1    37     9.3    0.00 
 127    7:45   0.38   72.5    22    4.7    39     9.3    0.00 
 127    7:50   0.40   72.5    22    6.0    36     9.9    0.00 
 127    7:55   0.42   72.6    22    4.2    30     6.5    0.00 
 127    8:00   0.44   72.2    22    5.4    28     8.2    0.00 
 127    8:05   0.45   71.9    22    4.3    29     6.5    0.00 
 127    8:10   0.47   72.3    22    3.4    13     6.5    0.00 
 127    8:15   0.49   72.8    22    2.7    17     6.0    0.00 
 127    8:20   0.50   73.2    22    2.8    13     6.0    0.00 
 127    8:25   0.52   73.5    22    3.2    11     5.4    0.00 
 127    8:30   0.54   72.7    22    3.2    18     5.4    0.00 
 127    8:35   0.55   72.9    22    4.1    16     6.5    0.00 
 127    8:40   0.57   73.2    22    2.8   348     6.0    0.00 
 127    8:45   0.58   73.6    22    2.9     5     6.5    0.00 
 127    8:50   0.60   74.0    21    2.9    11     4.9    0.00 
 127    8:55   0.62   74.1    21    3.3   348     6.5    0.00 
 127    9:00   0.63   74.1    21    1.3    44     3.8    0.00 
 127    9:05   0.65   75.0    21    2.5   336     6.5    0.00 
 127    9:10   0.66   74.2    21    3.3    40     7.1    0.00 
 127    9:15   0.68   74.2    21    2.0   149     4.3    0.00 
 127    9:20   0.69   74.8    21    3.2   354     6.5    0.00 
 127    9:25   0.70   74.9    21    1.9   344     5.4    0.00 
 127    9:30   0.72   75.3    21    3.1   348     6.0    0.00 
 127    9:35   0.73   75.9    20    1.7    24     4.3    0.00 
 127    9:40   0.74   76.2    20    2.6   330     7.7    0.00 
 127    9:45   0.76   76.0    20    3.1   347     6.0    0.00 
 127    9:50   0.77   76.5    20    4.2    25     8.8    0.00 
 127    9:55   0.78   76.5    20    4.0    27     8.2    0.00 
 127   10:00   0.79   76.9    20    4.1    20    12.7    0.00 
 127   10:05   0.81   76.5    20    4.1     6     7.7    0.00 
 127   10:10   0.82   76.3    20    4.7   326     9.3    0.00 
 127   10:15   0.83   76.5    20    3.3   336     7.7    0.00 
 127   10:20   0.84   76.5    20    4.1   336     8.2    0.00 
 127   10:25   0.85   77.1    20    3.5   336     9.3    0.00 
 127   10:30   0.86   77.4    20    3.4   346     6.5    0.00 
 127   10:35   0.87   78.0    19    3.8    17     8.2    0.00 
 127   10:40   0.88   79.2    18    4.6    20    10.5    0.00 
 127   10:45   0.89   78.1    19    6.6     3    11.6    0.00 
 127   10:50   0.89   77.8    19    6.8    12    12.7    0.00 
 127   10:55   0.90   78.5    19    5.7    32    13.3    0.00 
 127   11:00   0.91   78.3    19    5.5    42    11.6    0.00 
 127   11:05   0.92   78.5    18    8.2    34    12.7    0.00 
 127   11:10   0.92   78.4    18    8.5    40    11.6    0.00 
 127   11:15   0.93   78.7    18    5.1    69     9.3    0.00 
 127   11:20   0.94   78.8    18    2.9    92     5.4    0.00 
 127   11:25   0.94   79.4    18    2.5   208     6.5    0.00 
 127   11:30   0.95   80.3    17    3.0    11     7.1    0.00 
 127   11:35   0.95   80.9    17    3.9   346     7.1    0.00 
 127   11:40   0.95   80.5    17    3.6   352     8.2    0.00 
 127   11:45   0.96   80.4    17    3.1    15     7.7    0.00 
 127   11:50   0.96   81.4    17    3.7   355     9.3    0.00 
 127   11:55   0.96   81.9    17    3.1   346     9.3    0.00 
 127   12:00   0.97   82.6    16    3.9    30     8.8    0.00 
 127   12:05   0.97   80.8    17    3.9   349     7.1    0.00 
 127   12:10   0.97   82.4    16    4.6   323    11.0    0.00 
 127   12:15   0.97   83.2    16    6.1    32    12.1    0.00 
 127   12:20   0.97   82.7    16    4.8    85     9.9    0.00 
 127   12:25   0.97   81.6    16    4.8   302     8.8    0.00 
 127   12:30   0.97   82.4    16    5.5     8    11.0    0.00 
 127   12:35   0.97   83.4    16    5.6   344    11.0    0.00 
 127   12:40   0.97   83.0    16    6.7    20    13.8    0.00 
 127   12:45   0.97   82.1    16    4.0     7     8.8    0.00 
 127   12:50   0.97   83.3    16    3.5    62     7.7    0.00 
 127   12:55   0.96   84.7    15    4.7    12    12.7    0.00 
 127   13:00   0.96   83.5    16    5.7   349    12.1    0.00 
 127   13:05   0.96   82.6    16    4.4   323     8.8    0.00 
 127   13:10   0.96   83.6    16    3.9   344     6.5    0.00 
 127   13:15   0.96   84.2    15    3.8   342     8.8    0.00 
 127   13:20   0.95   84.2    15    4.3    30     9.3    0.00 
 127   13:25   0.95   83.3    15    5.5    76    12.7    0.00 
 127   13:30   0.94   83.8    15    2.0   145     6.0    0.00 
 127   13:35   0.94   85.1    15    3.9   333    10.5    0.00 
 127   13:40   0.93   83.9    15    6.1   333    12.1    0.00 
 127   13:45   0.93   84.4    14    6.1    29     9.9    0.00 
 127   13:50   0.92   84.5    14    5.2   348    11.6    0.00 
 127   13:55   0.92   84.2    14    5.5   333    15.5    0.00 
 127   14:00   0.91   84.1    14    8.8   325    18.3    0.00 
 127   14:05   0.90   84.6    14    6.9   316    14.4    0.00 
 127   14:10   0.89   85.7    14    6.7   345    13.3    0.00 
 127   14:15   0.88   85.4    14    5.3    25     9.3    0.00 
 127   14:20   0.87   86.1    14    5.5   295     8.2    0.00 
 127   14:25   0.88   85.1    14    6.4   303    12.1    0.00 
 127   14:30   0.88   83.2    14    3.8   304     9.9    0.00 
 127   14:35   0.88   83.7    14    4.4   164     7.1    0.00 
 127   14:40   0.86   86.0    13    4.7   321    11.6    0.00 
 127   14:45   0.84   87.2    12    5.4     9     9.3    0.00 
 127   14:50   0.81   86.9    12    7.5    41    14.4    0.00 
 127   14:55   0.79   85.6    13    8.2    33    17.2    0.00 
 127   15:00   0.47   85.2    13    7.0    45    12.7    0.00 
 127   15:05   0.39   83.2    14    3.3    68     8.8    0.00 
 127   15:10   0.77   83.9    13    4.3   283     9.9    0.00 
 127   15:15   0.75   85.0    13    8.3    19    15.5    0.00 
 127   15:20   0.73   84.2    13    3.0   333     6.5    0.00 
 127   15:25   0.71   86.2    13    5.4   310    13.3    0.00 
 127   15:30   0.70   86.3    13    3.5    31     8.8    0.00 
 127   15:35   0.69   87.0    12    4.9   319     8.8    0.00 
 127   15:40   0.68   86.9    12    5.0   340    12.7    0.00 
 127   15:45   0.66   87.5    12    5.2    12    11.0    0.00 
 127   15:50   0.65   87.5    12    8.1   342    16.6    0.00 
 127   15:55   0.63   86.3    12    8.9   345    17.7    0.00 
 127   16:00   0.62   84.9    12    6.0   357    11.6    0.00 
 127   16:05   0.60   85.5    12    5.1   359     9.9    0.00 
 127   16:10   0.58   87.1    12    4.8    89    12.7    0.00 
 127   16:15   0.57   88.6    11    3.8   109     9.9    0.00 
 127   16:20   0.55   88.1    11    6.1    31    17.7    0.00 
 127   16:25   0.54   85.7    12    4.5   349    10.5    0.00 
 127   16:30   0.53   87.0    11    6.0   319    13.3    0.00 
 127   16:35   0.51   87.0    11    8.0   298    16.0    0.00 
 127   16:40   0.49   86.9    11    6.0   331    12.1    0.00 
 127   16:45   0.47   87.1    11    6.0   343    11.0    0.00 
 127   16:50   0.46   87.3    10    6.6   315    12.7    0.00 
 127   16:55   0.44   87.7    10    5.9    67    12.7    0.00 
 127   17:00   0.42   88.4    10    6.8     2    11.6    0.00 
 127   17:05   0.40   87.4    10    5.7    49    11.0    0.00 
 127   17:10   0.39   87.9    10    5.8     6    11.0    0.00 
 127   17:15   0.37   87.7     9    5.1   354     8.2    0.00 
 127   17:20   0.35   87.6    10    5.9   332    11.0    0.00 
 127   17:25   0.34   86.1    10    8.2   347    13.8    0.00 
 127   17:30   0.32   84.8    10   10.0   357    17.2    0.00 
 127   17:35   0.30   84.7    10    5.4   292    10.5    0.00 
 127   17:40   0.28   85.9    10    6.3   335    16.6    0.00 
 127   17:45   0.27   86.4     9    4.6    82     8.8    0.00 
 127   17:50   0.25   86.9     9    4.9    38    11.6    0.00 
 127   17:55   0.23   87.3     9    3.6    20     8.2    0.00 
 127   18:00   0.22   86.8     9    5.4   332    10.5    0.00 
 127   18:05   0.20   86.4     9    7.3   344    13.3    0.00 
 127   18:10   0.18   86.2     9    5.1   316     9.9    0.00 
 127   18:15   0.17   85.8     9    5.0   328     9.9    0.00 
 127   18:20   0.15   86.2     9    6.0   329    12.1    0.00 
 127   18:25   0.14   85.2     9    6.8   342    14.4    0.00 
 127   18:30   0.12   85.1     9    5.3   332    11.6    0.00 
 127   18:35   0.11   85.3     9    5.8   311    11.0    0.00 
 127   18:40   0.09   85.1     9    4.9   319     9.3    0.00 
 127   18:45   0.08   84.8     9    4.8    11     9.3    0.00 
 127   18:50   0.07   85.2     9    5.2   326     9.3    0.00 
 127   18:55   0.05   84.7     9    3.8   322     7.1    0.00 
 127   19:00   0.04   84.2     9    4.3   307     9.3    0.00 
 127   19:05   0.02   83.5     9    3.7     4     8.2    0.00 
 127   19:10   0.02   83.5     9    2.9   335     7.1    0.00 
 127   19:15   0.01   83.2     9    2.8   317     7.1    0.00 
 127   19:20   0.01   82.8     9    3.2   313     7.7    0.00 
 127   19:25   0.00   82.6     9    3.3   328     7.1    0.00 
 127   19:30   0.00   82.4     9    4.1   315     8.2    0.00 
 127   19:35   0.00   82.4     9    3.5   318     7.1    0.00 
 127   19:40   0.00   82.1     9    2.7   332     7.1    0.00 
 127   19:45   0.00   82.1     9    4.1   302     8.2    0.00 
 127   19:50   0.00   82.1     9    3.6   297     7.1    0.00 
 127   19:55   0.00   81.9     9    4.3   303     8.2    0.00 
 127   20:00   0.00   81.8     9    3.5   317     8.2    0.00 
 127   20:05   0.00   81.3    10    4.6    41     9.3    0.00 
 127   20:10   0.00   81.0    11    4.8    68    13.8    0.00 
 127   20:15   0.00   80.9    11    3.4    47     6.0    0.00 
 127   20:20   0.00   80.7    11    3.5    64     7.7    0.00 
 127   20:25   0.00   80.5    11    3.9   354     9.3    0.00 
 127   20:30   0.00   80.7    11    4.5   321     9.3    0.00 
 127   20:35   0.00   80.5    11    2.9    41     6.0    0.00 
 127   20:40   0.00   80.4    11    3.7    18    11.6    0.00 
 127   20:45   0.00   80.3    11    4.0   340     9.3    0.00 
 127   20:50   0.00   80.4    11    4.2   308     9.9    0.00 
 127   20:55   0.00   80.5    11    5.9   296    10.5    0.00 
 127   21:00   0.00   80.5    11    6.4   302    11.0    0.00 
 127   21:05   0.00   80.5    11    5.8   301     9.9    0.00 
 127   21:10   0.00   80.5    12    6.0   294    10.5    0.00 
 127   21:15   0.00   80.2    12    2.7   293     7.1    0.00 
 127   21:20   0.00   79.7    12    2.9   102     6.0    0.00 
 127   21:25   0.00   79.5    12    2.9    93     6.5    0.00 
 127   21:30   0.00   79.3    12    3.0   102     6.5    0.00 
 127   21:35   0.00   79.2    12    2.1   360     5.4    0.00 
 127   21:40   0.00   79.1    12    2.6   299     8.8    0.00 
 127   21:45   0.00   79.1    12    3.8   305     7.7    0.00 
 127   21:50   0.00   79.2    12    3.9   298     8.8    0.00 
 127   21:55   0.00   79.4    12    6.3   291    11.6    0.00 
 127   22:00   0.00   79.3    12    4.2   317    10.5    0.00 
 127   22:05   0.00   79.0    13    4.1   303    12.1    0.00 
 127   22:10   0.00   78.6    13    3.3    72     6.5    0.00 
 127   22:15   0.00   78.4    13    3.6    67     7.1    0.00 
 127   22:20   0.00   78.4    13    3.2    56     6.5    0.00 
 127   22:25   0.00   78.3    14    3.7    71     8.2    0.00 
 127   22:30   0.00   78.2    14    2.9    24     6.0    0.00 
 127   22:35   0.00   78.2    14    3.1    35     5.4    0.00 
 127   22:40   0.00   78.2    14    2.4    20     4.9    0.00 
 127   22:45   0.00   78.0    14    2.7    24     7.1    0.00 
 127   22:50   0.00   77.5    14    2.6   120     6.0    0.00 
 127   22:55   0.00   77.3    14    4.8   227     9.3    0.00 
 127   23:00   0.00   77.2    14    7.6   219    11.0    0.00 
 127   23:05   0.00   76.7    14    7.8   212    11.0    0.00 
 127   23:10   0.00   75.7    16    7.4   200    11.6    0.00 
 127   23:15   0.00   75.2    18    7.9   202    11.0    0.00 
 127   23:20   0.00   74.8    20    7.8   199    11.0    0.00 
 127   23:25   0.00   74.2    21    7.4   197    10.5    0.00 
 127   23:30   0.00   74.0    21    6.9   179     9.9    0.00 
 127   23:35   0.00   72.9    21    5.7   147     8.2    0.00 
 127   23:40   0.00   72.6    22    6.0   146     8.8    0.00 
 127   23:45   0.00   72.5    22    6.4   146     8.2    0.00 
 127   23:50   0.00   72.0    23    6.3   153     8.2    0.00 
 127   23:55   0.00   71.4    25    6.3   154     8.8    0.00 
 128    0:00   0.00   71.3    26    6.0   154     8.2    0.00 
 128    0:05   0.00   71.7    25    6.0   168     8.2    0.00 
 128    0:10   0.00   71.9    24    5.8   173     7.7    0.00 
 128    0:15   0.00   72.2    23    5.9   186     7.7    0.00 
 128    0:20   0.00   73.1    21    6.9   201     9.9    0.00 
 128    0:25   0.00   73.9    21    8.1   207    10.5    0.00 
 128    0:30   0.00   74.5    21    9.2   213    11.6    0.00 
 128    0:35   0.00   74.0    22    9.2   205    12.1    0.00 
 128    0:40   0.00   73.6    23    9.2   212    12.7    0.00 
 128    0:45   0.00   73.5    24    8.9   215    11.6    0.00 
 128    0:50   0.00   73.4    24    9.1   220    12.7    0.00 
 128    0:55   0.00   73.4    24    9.4   219    13.3    0.00 
 128    1:00   0.00   73.1    24    9.8   214    13.3    0.00 
 128    1:05   0.00   73.0    25   10.2   214    13.3    0.00 
 128    1:10   0.00   73.3    25    9.8   220    13.3    0.00 
 128    1:15   0.00   73.6    24    8.6   227    13.3    0.00 
 128    1:20   0.00   73.5    24    9.0   232    13.3    0.00 
 128    1:25   0.00   73.5    24    8.5   231    12.1    0.00 
 128    1:30   0.00   73.1    25    9.3   228    13.3    0.00 
 128    1:35   0.00   73.0    26    9.0   223    13.3    0.00 
 128    1:40   0.00   72.5    26    9.6   220    12.7    0.00 
 128    1:45   0.00   72.5    26   10.0   213    13.3    0.00 
 128    1:50   0.00   72.4    26   10.1   211    13.8    0.00 
 128    1:55   0.00   72.7    26    9.3   218    13.3    0.00 
 128    2:00   0.00   72.9    25    9.3   219    13.3    0.00 
 128    2:05   0.00   73.1    25    9.2   223    12.7    0.00 
 128    2:10   0.00   73.1    25    9.3   220    13.8    0.00 
 128    2:15   0.00   72.8    26    9.6   215    13.3    0.00 
 128    2:20   0.00   72.6    26    8.8   214    11.6    0.00 
 128    2:25   0.00   72.4    26    8.7   212    11.6    0.00 
 128    2:30   0.00   72.5    26    8.5   215    12.7    0.00 
 128    2:35   0.00   72.7    25    7.5   224    11.0    0.00 
 128    2:40   0.00   72.6    25    7.0   221     9.9    0.00 
 128    2:45   0.00   72.6    25    8.0   214    11.0    0.00 
 128    2:50   0.00   72.3    26    7.1   207     9.9    0.00 
 128    2:55   0.00   72.2    26    7.5   214    11.0    0.00 
 128    3:00   0.00   72.7    25    6.6   220    10.5    0.00 
 128    3:05   0.00   72.9    24    6.4   221     9.3    0.00 
 128    3:10   0.00   72.7    25    6.8   218     8.8    0.00 
 128    3:15   0.00   72.5    25    6.9   212     9.9    0.00 
 128    3:20   0.00   72.8    24    6.9   219     8.8    0.00 
 128    3:25   0.00   72.7    25    6.7   211     8.2    0.00 
 128    3:30   0.00   71.9    26    7.1   197    10.5    0.00 

Return to Weather Top graphs page.


Western Regional Climate Center,wrcc@dri.edu